Bevent, Wisconsin
Current Conditions -  °F | °C
As of 2:45 PM on Saturday 22 Nov 2014 (Local Time) from KCWA Reporting Station
Moderate Fog Moderate Fog  
Wind Chill: 30°   Ceiling: 200
Heat Index: 34°   Visibility: 0.12mi
Dew Point: 34°   Wind: 5mph
Humidity: 100%   Direction: 180°S
Pressure: 29.74"   Gusts: NA
Location:  44.8205°N, 89.392°W
Report Text: KCWA 222045Z 18004KT 1/8SM FG OVC002 01/01 A2974
Loading
Personal Weather Stations






























Interactive Weather Map New forecast layout! Learn more

10-Day Weather Forecast

Advertisements
Track Severe Weather on mobile